DLH4566 EGKK-EDDF
Flight info
| Callsign | DLH4566 |
|---|---|
| Flight time | 1h 3m |
| Altitude | 35000 |
| Route | DVR UL9 KONAN UL607 KOK DCT REMBA UL607 SPI T180 NIVNU/N0411F230 T847 IMCOM IMCOM1B |
| Aircraft | A339/H-SADE1E2E3GHIJ3J5M1P2RWXY/LB2D1 |
Departure
| Time | 2026-05-06 13:19 |
|---|---|
| Airport | London Gatwick Airport (EGKK) |
Arrival
| Time | 2026-05-06 14:22 |
|---|---|
| Airport | Frankfurt Main Airport (EDDF) |
| Time | Latitude | Longitude | Altitude | Speed | Heading |
|---|---|---|---|---|---|
| 2026-05-06 12:39 | 51.15572 | -0.16996 | 237 ft | 0 kts | 166° |
| 2026-05-06 12:57 | 51.15574 | -0.16996 | 209 ft | 5 kts | 166° |
| 2026-05-06 12:57 | 51.15611 | -0.17011 | 209 ft | 5 kts | 188° |
| 2026-05-06 12:57 | 51.15626 | -0.17007 | 209 ft | 0 kts | 188° |
| 2026-05-06 12:58 | 51.15643 | -0.17000 | 211 ft | 0 kts | 252° |
| 2026-05-06 13:01 | 51.15649 | -0.16979 | 219 ft | 4 kts | 275° |
| 2026-05-06 13:01 | 51.15649 | -0.16975 | 219 ft | 0 kts | 279° |
| 2026-05-06 13:02 | 51.15651 | -0.16982 | 218 ft | 2 kts | 283° |
| 2026-05-06 13:02 | 51.15666 | -0.17016 | 218 ft | 5 kts | 310° |
| 2026-05-06 13:03 | 51.15704 | -0.17041 | 215 ft | 7 kts | 341° |
| 2026-05-06 13:03 | 51.15762 | -0.17065 | 218 ft | 10 kts | 347° |
| 2026-05-06 13:03 | 51.15808 | -0.17123 | 213 ft | 6 kts | 286° |
| 2026-05-06 13:03 | 51.15803 | -0.17211 | 217 ft | 10 kts | 262° |
| 2026-05-06 13:04 | 51.15786 | -0.17340 | 210 ft | 14 kts | 257° |
| 2026-05-06 13:04 | 51.15762 | -0.17508 | 219 ft | 17 kts | 257° |
| 2026-05-06 13:04 | 51.15734 | -0.17712 | 219 ft | 20 kts | 258° |
| 2026-05-06 13:04 | 51.15572 | -0.16996 | 209 ft | 0 kts | 166° |
| 2026-05-06 13:09 | 51.15599 | -0.17007 | 209 ft | 7 kts | 171° |
| 2026-05-06 13:09 | 51.15649 | -0.16972 | 220 ft | 9 kts | 256° |
| 2026-05-06 13:10 | 51.15651 | -0.16961 | 213 ft | 0 kts | 256° |
| 2026-05-06 13:11 | 51.15651 | -0.16962 | 212 ft | 1 kts | 256° |
| 2026-05-06 13:11 | 51.15648 | -0.16994 | 214 ft | 5 kts | 261° |
| 2026-05-06 13:11 | 51.15639 | -0.17072 | 213 ft | 9 kts | 259° |
| 2026-05-06 13:11 | 51.15623 | -0.17193 | 216 ft | 13 kts | 257° |
| 2026-05-06 13:12 | 51.15598 | -0.17352 | 216 ft | 16 kts | 255° |
| 2026-05-06 13:12 | 51.15542 | -0.17520 | 216 ft | 18 kts | 252° |
| 2026-05-06 13:12 | 51.15509 | -0.17733 | 217 ft | 21 kts | 257° |
| 2026-05-06 13:12 | 51.15477 | -0.17981 | 219 ft | 24 kts | 258° |
| 2026-05-06 13:13 | 51.15446 | -0.18194 | 219 ft | 13 kts | 257° |
| 2026-05-06 13:13 | 51.15387 | -0.18267 | 216 ft | 11 kts | 179° |
| 2026-05-06 13:13 | 51.15300 | -0.18246 | 218 ft | 15 kts | 168° |
| 2026-05-06 13:13 | 51.15201 | -0.18242 | 217 ft | 10 kts | 207° |
| 2026-05-06 13:14 | 51.15180 | -0.18343 | 217 ft | 11 kts | 259° |
| 2026-05-06 13:14 | 51.15162 | -0.18489 | 218 ft | 15 kts | 258° |
| 2026-05-06 13:14 | 51.15137 | -0.18679 | 213 ft | 19 kts | 258° |
| 2026-05-06 13:14 | 51.15106 | -0.18909 | 212 ft | 23 kts | 258° |
| 2026-05-06 13:15 | 51.15072 | -0.19166 | 220 ft | 25 kts | 257° |
| 2026-05-06 13:15 | 51.15032 | -0.19454 | 216 ft | 28 kts | 258° |
| 2026-05-06 13:15 | 51.14988 | -0.19766 | 213 ft | 30 kts | 258° |
| 2026-05-06 13:15 | 51.14941 | -0.20106 | 217 ft | 33 kts | 257° |
| 2026-05-06 13:16 | 51.14895 | -0.20447 | 217 ft | 29 kts | 258° |
| 2026-05-06 13:16 | 51.14850 | -0.20767 | 210 ft | 31 kts | 257° |
| 2026-05-06 13:16 | 51.14803 | -0.21106 | 212 ft | 32 kts | 254° |
| 2026-05-06 13:16 | 51.14749 | -0.21365 | 214 ft | 10 kts | 232° |
| 2026-05-06 13:17 | 51.14683 | -0.21370 | 212 ft | 10 kts | 154° |
| 2026-05-06 13:17 | 51.14605 | -0.21317 | 212 ft | 14 kts | 160° |
| 2026-05-06 13:17 | 51.14529 | -0.21225 | 220 ft | 15 kts | 120° |
| 2026-05-06 13:17 | 51.14525 | -0.21169 | 222 ft | 11 kts | 89° |
| 2026-05-06 13:18 | 51.14539 | -0.21018 | 220 ft | 15 kts | 79° |
| 2026-05-06 13:18 | 51.14560 | -0.20853 | 212 ft | 1 kts | 78° |
| 2026-05-06 13:18 | 51.14606 | -0.20528 | 218 ft | 86 kts | 77° |
| 2026-05-06 13:18 | 51.14804 | -0.19038 | 303 ft | 175 kts | 75° |
| 2026-05-06 13:19 | 51.15055 | -0.17028 | 1196 ft | 193 kts | 74° |
| 2026-05-06 13:19 | 51.15333 | -0.14904 | 2435 ft | 197 kts | 73° |
| 2026-05-06 13:19 | 51.15667 | -0.12673 | 3377 ft | 217 kts | 73° |
| 2026-05-06 13:19 | 51.16037 | -0.10209 | 4145 ft | 239 kts | 73° |
| 2026-05-06 13:20 | 51.16419 | -0.07554 | 4815 ft | 258 kts | 74° |
| 2026-05-06 13:20 | 51.16798 | -0.04699 | 5541 ft | 268 kts | 76° |
| 2026-05-06 13:20 | 51.16921 | -0.01678 | 6188 ft | 279 kts | 89° |
| 2026-05-06 13:20 | 51.16796 | 0.01385 | 7330 ft | 274 kts | 90° |
| 2026-05-06 13:21 | 51.16718 | 0.04455 | 8226 ft | 282 kts | 89° |
| 2026-05-06 13:21 | 51.16669 | 0.07608 | 9149 ft | 287 kts | 89° |
| 2026-05-06 13:21 | 51.16624 | 0.10803 | 10110 ft | 292 kts | 89° |
| 2026-05-06 13:21 | 51.16571 | 0.14072 | 10942 ft | 299 kts | 89° |
| 2026-05-06 13:22 | 51.16519 | 0.17397 | 11847 ft | 301 kts | 88° |
| 2026-05-06 13:22 | 51.16517 | 0.19823 | 12495 ft | 304 kts | 88° |
| 2026-05-06 13:22 | 51.16540 | 0.23332 | 13366 ft | 311 kts | 88° |
| 2026-05-06 13:22 | 51.16565 | 0.26816 | 14135 ft | 318 kts | 88° |
| 2026-05-06 13:23 | 51.16581 | 0.30347 | 15007 ft | 319 kts | 89° |
| 2026-05-06 13:23 | 51.16591 | 0.33890 | 15850 ft | 323 kts | 89° |
| 2026-05-06 13:23 | 51.16597 | 0.37507 | 16565 ft | 330 kts | 89° |
| 2026-05-06 13:23 | 51.16601 | 0.41181 | 17391 ft | 333 kts | 89° |
| 2026-05-06 13:24 | 51.16602 | 0.44875 | 17837 ft | 335 kts | 89° |
| 2026-05-06 13:24 | 51.16601 | 0.48635 | 18011 ft | 343 kts | 90° |
| 2026-05-06 13:24 | 51.16599 | 0.52508 | 18260 ft | 359 kts | 90° |
| 2026-05-06 13:24 | 51.16596 | 0.56597 | 18475 ft | 378 kts | 90° |
| 2026-05-06 13:25 | 51.16592 | 0.60872 | 18723 ft | 393 kts | 90° |
| 2026-05-06 13:25 | 51.16587 | 0.65168 | 19290 ft | 397 kts | 90° |
| 2026-05-06 13:25 | 51.16580 | 0.69642 | 20074 ft | 397 kts | 90° |
| 2026-05-06 13:25 | 51.16572 | 0.74002 | 20625 ft | 402 kts | 90° |
| 2026-05-06 13:26 | 51.16560 | 0.78481 | 21231 ft | 400 kts | 90° |
| 2026-05-06 13:26 | 51.16548 | 0.82919 | 21517 ft | 402 kts | 90° |
| 2026-05-06 13:26 | 51.16533 | 0.87457 | 21882 ft | 412 kts | 91° |
| 2026-05-06 13:26 | 51.16516 | 0.92030 | 22651 ft | 413 kts | 91° |
| 2026-05-06 13:27 | 51.16500 | 0.96624 | 23259 ft | 418 kts | 91° |
| 2026-05-06 13:27 | 51.16481 | 1.01269 | 23846 ft | 421 kts | 91° |
| 2026-05-06 13:27 | 51.16459 | 1.05959 | 24454 ft | 424 kts | 91° |
| 2026-05-06 13:27 | 51.16434 | 1.10669 | 24996 ft | 427 kts | 91° |
| 2026-05-06 13:28 | 51.16407 | 1.15421 | 25563 ft | 430 kts | 91° |
| 2026-05-06 13:28 | 51.16378 | 1.20204 | 26118 ft | 433 kts | 91° |
| 2026-05-06 13:28 | 51.16348 | 1.24996 | 26613 ft | 437 kts | 91° |
| 2026-05-06 13:28 | 51.16314 | 1.29874 | 27222 ft | 438 kts | 91° |
| 2026-05-06 13:29 | 51.16279 | 1.34750 | 27682 ft | 443 kts | 92° |
| 2026-05-06 13:29 | 51.16089 | 1.39662 | 28178 ft | 445 kts | 96° |
| 2026-05-06 13:29 | 51.15845 | 1.44580 | 28711 ft | 447 kts | 95° |
| 2026-05-06 13:29 | 51.15608 | 1.49571 | 28931 ft | 456 kts | 95° |
| 2026-05-06 13:30 | 51.15366 | 1.54679 | 28957 ft | 468 kts | 95° |
| 2026-05-06 13:30 | 51.15115 | 1.59917 | 28955 ft | 480 kts | 95° |
| 2026-05-06 13:30 | 51.14858 | 1.65202 | 28958 ft | 488 kts | 95° |
| 2026-05-06 13:31 | 51.14325 | 1.75917 | 28954 ft | 469 kts | 95° |
| 2026-05-06 13:31 | 51.14069 | 1.80991 | 28951 ft | 446 kts | 95° |
| 2026-05-06 13:31 | 51.13821 | 1.85858 | 28950 ft | 441 kts | 96° |
| 2026-05-06 13:31 | 51.13566 | 1.90790 | 28965 ft | 452 kts | 95° |
| 2026-05-06 13:32 | 51.13306 | 1.95755 | 28965 ft | 446 kts | 95° |
| 2026-05-06 13:32 | 51.12786 | 2.05630 | 28966 ft | 449 kts | 95° |
| 2026-05-06 13:33 | 51.12259 | 2.15501 | 28967 ft | 450 kts | 95° |
| 2026-05-06 13:33 | 51.11722 | 2.25374 | 28959 ft | 446 kts | 96° |
| 2026-05-06 13:34 | 51.11270 | 2.33585 | 28948 ft | 448 kts | 95° |
| 2026-05-06 13:34 | 51.10721 | 2.43440 | 28949 ft | 448 kts | 96° |
| 2026-05-06 13:35 | 51.10164 | 2.53268 | 28942 ft | 447 kts | 96° |
| 2026-05-06 13:35 | 51.09561 | 2.63117 | 28941 ft | 445 kts | 99° |
| 2026-05-06 13:36 | 51.08129 | 2.72711 | 28940 ft | 446 kts | 107° |
| 2026-05-06 13:36 | 51.06405 | 2.82109 | 28944 ft | 447 kts | 107° |
| 2026-05-06 13:37 | 51.04689 | 2.91553 | 28943 ft | 442 kts | 107° |
| 2026-05-06 13:37 | 51.02971 | 3.00965 | 28941 ft | 444 kts | 107° |
| 2026-05-06 13:38 | 51.01242 | 3.10363 | 28934 ft | 443 kts | 108° |
| 2026-05-06 13:38 | 50.99521 | 3.19675 | 28929 ft | 453 kts | 107° |
| 2026-05-06 13:38 | 50.98615 | 3.24547 | 28921 ft | 466 kts | 107° |
| 2026-05-06 13:39 | 50.97685 | 3.29553 | 28919 ft | 477 kts | 108° |
| 2026-05-06 13:39 | 50.95794 | 3.39673 | 28907 ft | 485 kts | 107° |
| 2026-05-06 13:40 | 50.93865 | 3.49960 | 28910 ft | 487 kts | 108° |
| 2026-05-06 13:40 | 50.91918 | 3.60272 | 28904 ft | 488 kts | 108° |
| 2026-05-06 13:41 | 50.90137 | 3.69657 | 28905 ft | 488 kts | 108° |
| 2026-05-06 13:41 | 50.88175 | 3.79946 | 28896 ft | 488 kts | 108° |
| 2026-05-06 13:42 | 50.86202 | 3.90227 | 28899 ft | 488 kts | 108° |
| 2026-05-06 13:42 | 50.84235 | 4.00433 | 28893 ft | 487 kts | 108° |
| 2026-05-06 13:43 | 50.82247 | 4.10680 | 28892 ft | 487 kts | 108° |
| 2026-05-06 13:43 | 50.80250 | 4.20921 | 28891 ft | 487 kts | 108° |
| 2026-05-06 13:44 | 50.78252 | 4.31125 | 28890 ft | 485 kts | 108° |
| 2026-05-06 13:44 | 50.76246 | 4.41304 | 28889 ft | 485 kts | 108° |
| 2026-05-06 13:45 | 50.74231 | 4.51476 | 28890 ft | 485 kts | 108° |
| 2026-05-06 13:45 | 50.71233 | 4.66520 | 28887 ft | 484 kts | 108° |
| 2026-05-06 13:46 | 50.69204 | 4.76632 | 28882 ft | 483 kts | 109° |
| 2026-05-06 13:46 | 50.67170 | 4.86718 | 28881 ft | 483 kts | 109° |
| 2026-05-06 13:47 | 50.65125 | 4.96807 | 28876 ft | 484 kts | 109° |
| 2026-05-06 13:47 | 50.63051 | 5.06887 | 28874 ft | 482 kts | 109° |
| 2026-05-06 13:48 | 50.60990 | 5.16857 | 28874 ft | 482 kts | 109° |
| 2026-05-06 13:48 | 50.58911 | 5.26890 | 28866 ft | 482 kts | 109° |
| 2026-05-06 13:49 | 50.56820 | 5.36921 | 28867 ft | 482 kts | 109° |
| 2026-05-06 13:49 | 50.54724 | 5.46931 | 28863 ft | 482 kts | 109° |
| 2026-05-06 13:50 | 50.52616 | 5.56945 | 28864 ft | 482 kts | 109° |
| 2026-05-06 13:50 | 50.50536 | 5.66962 | 28857 ft | 481 kts | 107° |
| 2026-05-06 13:51 | 50.48694 | 5.77007 | 28853 ft | 477 kts | 107° |
| 2026-05-06 13:51 | 50.46856 | 5.87016 | 28852 ft | 477 kts | 107° |
| 2026-05-06 13:52 | 50.44983 | 5.96991 | 28850 ft | 477 kts | 107° |
| 2026-05-06 13:52 | 50.43104 | 6.06893 | 28844 ft | 477 kts | 107° |
| 2026-05-06 13:53 | 50.41188 | 6.16938 | 28832 ft | 478 kts | 107° |
| 2026-05-06 13:53 | 50.39285 | 6.26867 | 28833 ft | 478 kts | 107° |
| 2026-05-06 13:54 | 50.37362 | 6.36850 | 28811 ft | 478 kts | 107° |
| 2026-05-06 13:54 | 50.35418 | 6.46830 | 28800 ft | 479 kts | 107° |
| 2026-05-06 13:55 | 50.33519 | 6.56891 | 28797 ft | 485 kts | 103° |
| 2026-05-06 13:55 | 50.33280 | 6.66558 | 28806 ft | 490 kts | 84° |
| 2026-05-06 13:56 | 50.33963 | 6.76880 | 28807 ft | 453 kts | 91° |
| 2026-05-06 13:56 | 50.33998 | 6.81683 | 28805 ft | 434 kts | 91° |
| 2026-05-06 13:56 | 50.33711 | 6.86408 | 28816 ft | 440 kts | 102° |
| 2026-05-06 13:57 | 50.32792 | 6.90903 | 28813 ft | 438 kts | 115° |
| 2026-05-06 13:57 | 50.31415 | 6.95200 | 28809 ft | 445 kts | 121° |
| 2026-05-06 13:57 | 50.28847 | 7.02698 | 28809 ft | 443 kts | 120° |
| 2026-05-06 13:58 | 50.26127 | 7.11331 | 28572 ft | 441 kts | 118° |
| 2026-05-06 13:58 | 50.24816 | 7.15667 | 27667 ft | 443 kts | 117° |
| 2026-05-06 13:58 | 50.23502 | 7.20048 | 26697 ft | 446 kts | 117° |
| 2026-05-06 13:59 | 50.22190 | 7.24427 | 25811 ft | 441 kts | 117° |
| 2026-05-06 13:59 | 50.20895 | 7.28742 | 24913 ft | 437 kts | 117° |
| 2026-05-06 13:59 | 50.20474 | 7.30141 | 24622 ft | 436 kts | 117° |
| 2026-05-06 13:59 | 50.19176 | 7.34435 | 23716 ft | 432 kts | 118° |
| 2026-05-06 14:00 | 50.17839 | 7.38545 | 22780 ft | 427 kts | 120° |
| 2026-05-06 14:00 | 50.16354 | 7.42482 | 21912 ft | 417 kts | 128° |
| 2026-05-06 14:00 | 50.14537 | 7.45933 | 21005 ft | 408 kts | 133° |
| 2026-05-06 14:00 | 50.12692 | 7.49255 | 20122 ft | 402 kts | 133° |
| 2026-05-06 14:01 | 50.10873 | 7.52524 | 19232 ft | 396 kts | 133° |
| 2026-05-06 14:01 | 50.09084 | 7.55733 | 18373 ft | 389 kts | 133° |
| 2026-05-06 14:01 | 50.07314 | 7.58901 | 17406 ft | 384 kts | 133° |
| 2026-05-06 14:01 | 50.05572 | 7.62017 | 16369 ft | 380 kts | 133° |
| 2026-05-06 14:02 | 50.03880 | 7.65048 | 15395 ft | 375 kts | 133° |
| 2026-05-06 14:02 | 50.02168 | 7.68107 | 14405 ft | 372 kts | 133° |
| 2026-05-06 14:02 | 50.00475 | 7.71130 | 13431 ft | 369 kts | 133° |
| 2026-05-06 14:02 | 49.98801 | 7.74116 | 12475 ft | 362 kts | 133° |
| 2026-05-06 14:03 | 49.97199 | 7.77029 | 11565 ft | 356 kts | 129° |
| 2026-05-06 14:03 | 49.96119 | 7.80459 | 11045 ft | 358 kts | 107° |
| 2026-05-06 14:03 | 49.95882 | 7.84338 | 10861 ft | 364 kts | 87° |
| 2026-05-06 14:03 | 49.96466 | 7.88159 | 10780 ft | 364 kts | 73° |
| 2026-05-06 14:04 | 49.97237 | 7.91906 | 10792 ft | 363 kts | 73° |
| 2026-05-06 14:04 | 49.98007 | 7.95678 | 10792 ft | 367 kts | 73° |
| 2026-05-06 14:04 | 49.98779 | 7.99449 | 10795 ft | 364 kts | 73° |
| 2026-05-06 14:04 | 49.99545 | 8.03201 | 10795 ft | 366 kts | 73° |
| 2026-05-06 14:05 | 50.00291 | 8.06833 | 10795 ft | 333 kts | 73° |
| 2026-05-06 14:05 | 50.00959 | 8.10074 | 10788 ft | 301 kts | 73° |
| 2026-05-06 14:05 | 50.01624 | 8.13304 | 10794 ft | 323 kts | 73° |
| 2026-05-06 14:05 | 50.02306 | 8.16612 | 10793 ft | 319 kts | 73° |
| 2026-05-06 14:06 | 50.02981 | 8.19902 | 10797 ft | 318 kts | 73° |
| 2026-05-06 14:06 | 50.03659 | 8.23204 | 10795 ft | 321 kts | 73° |
| 2026-05-06 14:06 | 50.04296 | 8.26302 | 10785 ft | 318 kts | 73° |
| 2026-05-06 14:06 | 50.04965 | 8.29574 | 10783 ft | 318 kts | 73° |
| 2026-05-06 14:07 | 50.05635 | 8.32856 | 10790 ft | 319 kts | 73° |
| 2026-05-06 14:07 | 50.06472 | 8.36049 | 10783 ft | 318 kts | 64° |
| 2026-05-06 14:07 | 50.07480 | 8.39112 | 10780 ft | 319 kts | 63° |
| 2026-05-06 14:07 | 50.08498 | 8.42191 | 10791 ft | 319 kts | 63° |
| 2026-05-06 14:08 | 50.09508 | 8.45257 | 10771 ft | 317 kts | 63° |
| 2026-05-06 14:08 | 50.10518 | 8.48326 | 10790 ft | 319 kts | 63° |
| 2026-05-06 14:08 | 50.11536 | 8.51404 | 10771 ft | 319 kts | 63° |
| 2026-05-06 14:08 | 50.12550 | 8.54472 | 10779 ft | 319 kts | 63° |
| 2026-05-06 14:09 | 50.13570 | 8.57551 | 10775 ft | 321 kts | 63° |
| 2026-05-06 14:09 | 50.14591 | 8.60631 | 10775 ft | 319 kts | 63° |
| 2026-05-06 14:09 | 50.15607 | 8.63708 | 10777 ft | 320 kts | 63° |
| 2026-05-06 14:09 | 50.16627 | 8.66794 | 10782 ft | 320 kts | 63° |
| 2026-05-06 14:10 | 50.17646 | 8.69872 | 10768 ft | 319 kts | 63° |
| 2026-05-06 14:10 | 50.18664 | 8.72951 | 10765 ft | 320 kts | 63° |
| 2026-05-06 14:10 | 50.19693 | 8.76062 | 10887 ft | 325 kts | 63° |
| 2026-05-06 14:10 | 50.20717 | 8.79174 | 10978 ft | 320 kts | 64° |
| 2026-05-06 14:11 | 50.21741 | 8.82281 | 10994 ft | 322 kts | 63° |
| 2026-05-06 14:11 | 50.22764 | 8.85387 | 10991 ft | 320 kts | 63° |
| 2026-05-06 14:11 | 50.23775 | 8.88465 | 10904 ft | 318 kts | 63° |
| 2026-05-06 14:11 | 50.24784 | 8.91524 | 10481 ft | 316 kts | 63° |
| 2026-05-06 14:12 | 50.25787 | 8.94554 | 9877 ft | 312 kts | 63° |
| 2026-05-06 14:12 | 50.26795 | 8.97592 | 8849 ft | 316 kts | 64° |
| 2026-05-06 14:12 | 50.27766 | 9.00683 | 7486 ft | 326 kts | 70° |
| 2026-05-06 14:12 | 50.28161 | 9.04197 | 6126 ft | 334 kts | 93° |
| 2026-05-06 14:13 | 50.27678 | 9.07675 | 5177 ft | 323 kts | 116° |
| 2026-05-06 14:13 | 50.26446 | 9.10426 | 4632 ft | 297 kts | 140° |
| 2026-05-06 14:13 | 50.25341 | 9.11629 | 4381 ft | 277 kts | 157° |
| 2026-05-06 14:13 | 50.23388 | 9.12280 | 4147 ft | 267 kts | 185° |
| 2026-05-06 14:14 | 50.21647 | 9.11501 | 4013 ft | 258 kts | 211° |
| 2026-05-06 14:14 | 50.20353 | 9.09808 | 3979 ft | 228 kts | 224° |
| 2026-05-06 14:14 | 50.19256 | 9.08215 | 3978 ft | 204 kts | 224° |
| 2026-05-06 14:14 | 50.18262 | 9.06778 | 3987 ft | 190 kts | 224° |
| 2026-05-06 14:15 | 50.17289 | 9.05360 | 3987 ft | 189 kts | 224° |
| 2026-05-06 14:15 | 50.16318 | 9.03956 | 3989 ft | 191 kts | 223° |
| 2026-05-06 14:15 | 50.15358 | 9.02549 | 3985 ft | 187 kts | 224° |
| 2026-05-06 14:15 | 50.14403 | 9.01148 | 3996 ft | 190 kts | 224° |
| 2026-05-06 14:16 | 50.13683 | 8.99444 | 3992 ft | 189 kts | 245° |
| 2026-05-06 14:16 | 50.13233 | 8.97538 | 3994 ft | 187 kts | 251° |
| 2026-05-06 14:16 | 50.12811 | 8.95628 | 3999 ft | 190 kts | 248° |
| 2026-05-06 14:16 | 50.12351 | 8.93707 | 3995 ft | 187 kts | 248° |
| 2026-05-06 14:17 | 50.11893 | 8.91790 | 3990 ft | 191 kts | 249° |
| 2026-05-06 14:17 | 50.11431 | 8.89840 | 3998 ft | 189 kts | 249° |
| 2026-05-06 14:17 | 50.10977 | 8.87939 | 3998 ft | 188 kts | 248° |
| 2026-05-06 14:17 | 50.10516 | 8.85998 | 3980 ft | 193 kts | 249° |
| 2026-05-06 14:18 | 50.10057 | 8.84071 | 3797 ft | 188 kts | 249° |
| 2026-05-06 14:18 | 50.09599 | 8.82140 | 3558 ft | 187 kts | 249° |
| 2026-05-06 14:18 | 50.09303 | 8.80899 | 3399 ft | 183 kts | 249° |
| 2026-05-06 14:18 | 50.08855 | 8.79018 | 3140 ft | 188 kts | 249° |
| 2026-05-06 14:19 | 50.08403 | 8.77114 | 2878 ft | 188 kts | 249° |
| 2026-05-06 14:19 | 50.07952 | 8.75219 | 2621 ft | 183 kts | 249° |
| 2026-05-06 14:19 | 50.07513 | 8.73382 | 2383 ft | 185 kts | 249° |
| 2026-05-06 14:19 | 50.06917 | 8.70871 | 2065 ft | 182 kts | 250° |
| 2026-05-06 14:20 | 50.06631 | 8.69670 | 1887 ft | 168 kts | 250° |
| 2026-05-06 14:20 | 50.06244 | 8.68046 | 1699 ft | 160 kts | 250° |
| 2026-05-06 14:20 | 50.05848 | 8.66363 | 1469 ft | 165 kts | 249° |
| 2026-05-06 14:20 | 50.05448 | 8.64738 | 1232 ft | 155 kts | 250° |
| 2026-05-06 14:21 | 50.05094 | 8.63199 | 1007 ft | 147 kts | 248° |
| 2026-05-06 14:21 | 50.04745 | 8.61734 | 816 ft | 146 kts | 247° |
| 2026-05-06 14:21 | 50.04375 | 8.60236 | 630 ft | 148 kts | 246° |
| 2026-05-06 14:21 | 50.04034 | 8.58783 | 424 ft | 139 kts | 249° |
| 2026-05-06 14:22 | 50.03733 | 8.57515 | 373 ft | 72 kts | 250° |
| 2026-05-06 14:22 | 50.03717 | 8.57104 | 368 ft | 22 kts | 304° |
| 2026-05-06 14:22 | 50.03751 | 8.57006 | 369 ft | 3 kts | 303° |
| 2026-05-06 14:22 | 50.03758 | 8.56987 | 367 ft | 0 kts | 302° |
| 2026-05-06 14:23 | 50.03767 | 8.56966 | 365 ft | 0 kts | 302° |
| 2026-05-06 14:23 | 50.03769 | 8.56959 | 363 ft | 4 kts | 302° |
| 2026-05-06 14:24 | 50.03797 | 8.56889 | 363 ft | 11 kts | 299° |
| 2026-05-06 14:24 | 50.03797 | 8.56757 | 363 ft | 13 kts | 256° |
| 2026-05-06 14:24 | 50.03768 | 8.56619 | 362 ft | 14 kts | 251° |
| 2026-05-06 14:24 | 50.03729 | 8.56464 | 366 ft | 16 kts | 249° |
| 2026-05-06 14:25 | 50.03690 | 8.56302 | 366 ft | 17 kts | 250° |
| 2026-05-06 14:25 | 50.03647 | 8.56119 | 368 ft | 19 kts | 250° |
| 2026-05-06 14:25 | 50.03600 | 8.55924 | 365 ft | 20 kts | 249° |
| 2026-05-06 14:25 | 50.03546 | 8.55701 | 365 ft | 24 kts | 249° |
| 2026-05-06 14:26 | 50.03490 | 8.55463 | 359 ft | 24 kts | 250° |
| 2026-05-06 14:26 | 50.03431 | 8.55215 | 364 ft | 24 kts | 250° |
| 2026-05-06 14:26 | 50.03382 | 8.55009 | 363 ft | 0 kts | 249° |
| 2026-05-06 14:26 | 50.03380 | 8.55002 | 361 ft | 2 kts | 249° |
| 2026-05-06 14:27 | 50.03374 | 8.54977 | 361 ft | 3 kts | 249° |
| 2026-05-06 14:27 | 50.03365 | 8.54938 | 363 ft | 5 kts | 249° |
| 2026-05-06 14:27 | 50.03348 | 8.54868 | 364 ft | 13 kts | 249° |
| 2026-05-06 14:27 | 50.03304 | 8.54687 | 366 ft | 20 kts | 249° |
| 2026-05-06 14:28 | 50.03255 | 8.54475 | 360 ft | 22 kts | 250° |
| 2026-05-06 14:28 | 50.03207 | 8.54269 | 361 ft | 0 kts | 250° |
| 2026-05-06 14:28 | 50.03207 | 8.54268 | 361 ft | 0 kts | 250° |
| 2026-05-06 14:28 | 50.03195 | 8.54216 | 360 ft | 9 kts | 250° |
| 2026-05-06 14:29 | 50.03170 | 8.54113 | 362 ft | 12 kts | 248° |
| 2026-05-06 14:29 | 50.03134 | 8.53970 | 360 ft | 16 kts | 249° |
| 2026-05-06 14:29 | 50.03095 | 8.53806 | 363 ft | 16 kts | 250° |
| 2026-05-06 14:29 | 50.03055 | 8.53641 | 362 ft | 17 kts | 250° |
| 2026-05-06 14:30 | 50.03014 | 8.53469 | 365 ft | 18 kts | 249° |
| 2026-05-06 14:30 | 50.02962 | 8.53260 | 357 ft | 24 kts | 249° |
| 2026-05-06 14:30 | 50.02968 | 8.53020 | 365 ft | 15 kts | 298° |
| 2026-05-06 14:30 | 50.02972 | 8.53013 | 366 ft | 0 kts | 301° |
| 2026-05-06 14:38 | 50.02982 | 8.52990 | 363 ft | 17 kts | 304° |
| 2026-05-06 14:38 | 50.03068 | 8.52843 | 377 ft | 18 kts | 328° |
| 2026-05-06 14:39 | 50.03190 | 8.52821 | 378 ft | 18 kts | 359° |
| 2026-05-06 14:39 | 50.03305 | 8.52881 | 377 ft | 18 kts | 47° |
| 2026-05-06 14:39 | 50.03364 | 8.53086 | 376 ft | 24 kts | 68° |
| 2026-05-06 14:39 | 50.03387 | 8.53180 | 378 ft | 1 kts | 70° |
| 2026-05-06 14:40 | 50.03387 | 8.53183 | 378 ft | 0 kts | 70° |
| 2026-05-06 14:41 | 50.03391 | 8.53199 | 375 ft | 3 kts | 70° |
| 2026-05-06 14:41 | 50.03402 | 8.53247 | 376 ft | 6 kts | 70° |
| 2026-05-06 14:41 | 50.03423 | 8.53334 | 375 ft | 11 kts | 70° |
| 2026-05-06 14:41 | 50.03459 | 8.53483 | 374 ft | 18 kts | 69° |
| 2026-05-06 14:42 | 50.03506 | 8.53678 | 379 ft | 21 kts | 70° |
| 2026-05-06 14:42 | 50.03563 | 8.53918 | 374 ft | 25 kts | 69° |
| 2026-05-06 14:42 | 50.03580 | 8.53986 | 377 ft | 1 kts | 69° |
| 2026-05-06 14:42 | 50.03609 | 8.54107 | 375 ft | 1 kts | 69° |
| 2026-05-06 14:43 | 50.03622 | 8.54159 | 378 ft | 1 kts | 69° |
| 2026-05-06 14:43 | 50.03631 | 8.54196 | 375 ft | 0 kts | 69° |
| 2026-05-06 14:43 | 50.03635 | 8.54215 | 377 ft | 5 kts | 69° |
| 2026-05-06 14:44 | 50.03651 | 8.54285 | 377 ft | 9 kts | 70° |
| 2026-05-06 14:44 | 50.03677 | 8.54395 | 376 ft | 13 kts | 69° |
| 2026-05-06 14:44 | 50.03718 | 8.54562 | 375 ft | 20 kts | 69° |
| 2026-05-06 14:45 | 50.03833 | 8.55046 | 368 ft | 22 kts | 70° |
| 2026-05-06 14:45 | 50.03890 | 8.55286 | 368 ft | 22 kts | 70° |
| 2026-05-06 14:45 | 50.03918 | 8.55404 | 367 ft | 13 kts | 69° |
| 2026-05-06 14:45 | 50.03956 | 8.55559 | 367 ft | 19 kts | 69° |
| 2026-05-06 14:46 | 50.04010 | 8.55788 | 365 ft | 25 kts | 70° |
| 2026-05-06 14:46 | 50.04078 | 8.56070 | 361 ft | 30 kts | 69° |
| 2026-05-06 14:46 | 50.04155 | 8.56399 | 360 ft | 34 kts | 69° |
| 2026-05-06 14:46 | 50.04223 | 8.56679 | 361 ft | 25 kts | 70° |
| 2026-05-06 14:47 | 50.04260 | 8.56781 | 362 ft | 8 kts | 44° |
| 2026-05-06 14:47 | 50.04322 | 8.56818 | 363 ft | 12 kts | 14° |
| 2026-05-06 14:47 | 50.04420 | 8.56847 | 361 ft | 17 kts | 9° |
| 2026-05-06 14:47 | 50.04488 | 8.56869 | 354 ft | 1 kts | 12° |
| 2026-05-06 14:48 | 50.04513 | 8.56878 | 354 ft | 6 kts | 13° |
| 2026-05-06 14:48 | 50.04548 | 8.56890 | 358 ft | 0 kts | 13° |
| 2026-05-06 14:48 | 50.04559 | 8.56894 | 362 ft | 3 kts | 13° |
| 2026-05-06 14:48 | 50.04586 | 8.56903 | 363 ft | 5 kts | 13° |
| 2026-05-06 14:49 | 50.04629 | 8.56923 | 363 ft | 8 kts | 20° |
| 2026-05-06 14:49 | 50.04678 | 8.56909 | 364 ft | 6 kts | 319° |
| 2026-05-06 14:49 | 50.04693 | 8.56874 | 367 ft | 1 kts | 301° |
| 2026-05-06 14:49 | 50.04695 | 8.56870 | 367 ft | 0 kts | 301° |
| 2026-05-06 14:50 | 50.04697 | 8.56867 | 367 ft | 1 kts | 306° |
| 2026-05-06 14:50 | 50.04703 | 8.56849 | 364 ft | 0 kts | 297° |
| 2026-05-06 14:50 | 50.04703 | 8.56848 | 364 ft | 0 kts | 295° |